Time;durP1;ratioP1;P1;durP2;ratioP2;P2;SDS_P1;SDS_P2;PMS_P1;PMS_P2;Temp;Humidity;BMP_temperature;BMP_pressure;BME280_temperature;BME280_humidity;BME280_pressure;Samples;Min_cycle;Max_cycle;Signal;HPM_P1;HPM_P2
2022/08/01 00:01:09;;;;;;;33.03;30.13;;;;;;;;;;5033643;28;20127;-52
2022/08/01 00:03:35;;;;;;;38.45;35.25;;;;;;;;;;5033898;28;20018;-57
2022/08/01 00:06:01;;;;;;;37.30;34.10;;;;;;;;;;5033704;28;20080;-54
2022/08/01 00:08:27;;;;;;;38.47;35.28;;;;;;;;;;5033116;28;20028;-57
2022/08/01 00:10:53;;;;;;;39.10;35.63;;;;;;;;;;5032620;28;20025;-58
2022/08/01 00:13:19;;;;;;;36.22;33.13;;;;;;;;;;5033761;28;20033;-55
2022/08/01 00:15:45;;;;;;;36.45;33.35;;;;;;;;;;5033726;28;20029;-57
2022/08/01 00:18:11;;;;;;;38.67;35.38;;;;;;;;;;5032477;28;20025;-60
2022/08/01 00:20:37;;;;;;;38.08;34.88;;;;;;;;;;5033485;28;20025;-56
2022/08/01 00:23:04;;;;;;;36.00;32.90;;;;;;;;;;5033411;28;20398;-59
2022/08/01 00:25:30;;;;;;;36.10;33.00;;;;;;;;;;5033787;28;20048;-58
2022/08/01 00:27:56;;;;;;;36.08;32.97;;;;;;;;;;5032640;28;20370;-59
2022/08/01 00:30:22;;;;;;;36.60;33.50;;;;;;;;;;5033335;28;20021;-59
2022/08/01 00:32:48;;;;;;;37.30;34.20;;;;;;;;;;5033250;28;20021;-59
2022/08/01 00:35:14;;;;;;;36.05;32.95;;;;;;;;;;5033197;28;20117;-57
2022/08/01 00:37:40;;;;;;;36.67;33.58;;;;;;;;;;5032446;28;20108;-54
2022/08/01 00:40:07;;;;;;;37.00;33.83;;;;;;;;;;5033215;28;20025;-59
2022/08/01 00:42:33;;;;;;;35.05;32.05;;;;;;;;;;5031902;28;20029;-58
2022/08/01 00:44:59;;;;;;;36.13;33.03;;;;;;;;;;5033311;28;20030;-60
2022/08/01 00:47:25;;;;;;;35.28;32.28;;;;;;;;;;5032487;28;20495;-57
2022/08/01 00:49:51;;;;;;;35.90;32.80;;;;;;;;;;5033087;28;20030;-53
2022/08/01 00:52:17;;;;;;;36.25;33.15;;;;;;;;;;5032737;28;20424;-54
2022/08/01 00:54:44;;;;;;;38.42;35.22;;;;;;;;;;5033441;28;20044;-57
2022/08/01 00:57:10;;;;;;;34.90;31.90;;;;;;;;;;5033226;28;20029;-61
2022/08/01 00:59:36;;;;;;;37.10;34.00;;;;;;;;;;5033428;28;20038;-61
2022/08/01 01:02:02;;;;;;;37.97;34.83;;;;;;;;;;5033069;28;20168;-62
2022/08/01 01:04:28;;;;;;;38.08;34.80;;;;;;;;;;5033385;28;20078;-62
2022/08/01 01:07:15;;;;;;;36.70;33.60;;;;;;;;;;5033078;28;20482;-62
2022/08/01 01:09:53;;;;;;;36.95;33.85;;;;;;;;;;5028210;28;20401;-61
2022/08/01 01:12:25;;;;;;;37.15;34.05;;;;;;;;;;5031381;28;20029;-60
2022/08/01 01:15:10;;;;;;;36.67;33.55;;;;;;;;;;5032908;28;20037;-62
2022/08/01 01:17:42;;;;;;;36.92;33.83;;;;;;;;;;5031871;28;20029;-59
2022/08/01 01:20:09;;;;;;;38.03;34.72;;;;;;;;;;5032589;28;20026;-59
2022/08/01 01:22:38;;;;;;;36.40;33.30;;;;;;;;;;5031525;28;20061;-59
2022/08/01 01:25:23;;;;;;;36.30;33.20;;;;;;;;;;5032689;28;20120;-58
2022/08/01 01:27:52;;;;;;;36.50;33.40;;;;;;;;;;5031742;28;20033;-58
2022/08/01 01:30:18;;;;;;;36.40;33.38;;;;;;;;;;5031921;28;20033;-58
2022/08/01 01:32:49;;;;;;;36.15;33.05;;;;;;;;;;5032369;28;20025;-60
2022/08/01 01:35:17;;;;;;;37.60;34.40;;;;;;;;;;5032424;28;20470;-61
2022/08/01 01:37:44;;;;;;;36.28;33.10;;;;;;;;;;5031473;28;20536;-61
2022/08/01 01:40:11;;;;;;;36.00;32.90;;;;;;;;;;5032277;28;20104;-55
2022/08/01 01:42:38;;;;;;;37.42;34.22;;;;;;;;;;5030793;28;20037;-59
2022/08/01 01:45:05;;;;;;;36.38;33.28;;;;;;;;;;5032185;28;20481;-58
2022/08/01 01:47:32;;;;;;;36.78;33.67;;;;;;;;;;5030973;28;20044;-58
2022/08/01 01:50:00;;;;;;;38.47;35.28;;;;;;;;;;5030667;28;20146;-59
2022/08/01 01:52:27;;;;;;;38.80;35.60;;;;;;;;;;5031960;28;20492;-59
2022/08/01 01:54:53;;;;;;;36.95;33.75;;;;;;;;;;5032041;28;20348;-59
2022/08/01 01:57:20;;;;;;;37.10;33.97;;;;;;;;;;5031294;28;20026;-59
2022/08/01 01:59:48;;;;;;;38.45;35.25;;;;;;;;;;5030800;28;20021;-60
2022/08/01 02:02:15;;;;;;;37.38;34.17;;;;;;;;;;5033011;28;20033;-58
2022/08/01 02:04:42;;;;;;;37.45;34.33;;;;;;;;;;5031951;28;20021;-57
2022/08/01 02:07:09;;;;;;;37.60;34.40;;;;;;;;;;5029815;28;20048;-56
2022/08/01 02:09:36;;;;;;;37.38;34.17;;;;;;;;;;5031858;28;20105;-58
2022/08/01 02:12:02;;;;;;;39.90;36.60;;;;;;;;;;5031674;28;20025;-56
2022/08/01 02:14:29;;;;;;;38.20;35.00;;;;;;;;;;5031826;28;20458;-57
2022/08/01 02:16:57;;;;;;;37.75;34.55;;;;;;;;;;5031714;28;20072;-59
2022/08/01 02:19:23;;;;;;;38.60;35.40;;;;;;;;;;5031150;28;20033;-58
2022/08/01 02:21:56;;;;;;;39.00;35.80;;;;;;;;;;5031684;28;20033;-60
2022/08/01 02:24:25;;;;;;;40.03;36.72;;;;;;;;;;5030627;28;20083;-63
2022/08/01 02:26:54;;;;;;;38.03;34.83;;;;;;;;;;5031762;28;20501;-61
2022/08/01 02:29:23;;;;;;;37.95;34.75;;;;;;;;;;5031236;28;20032;-60
2022/08/01 02:31:51;;;;;;;38.83;35.53;;;;;;;;;;5029389;28;20040;-61
2022/08/01 02:34:18;;;;;;;40.80;37.00;;;;;;;;;;5031691;28;20026;-62
2022/08/01 02:36:46;;;;;;;40.50;37.20;;;;;;;;;;5031913;28;20572;-62
2022/08/01 02:39:14;;;;;;;38.77;35.57;;;;;;;;;;5031199;28;20026;-62
2022/08/01 02:41:45;;;;;;;38.13;34.93;;;;;;;;;;5032766;28;20466;-60
2022/08/01 02:44:15;;;;;;;38.30;35.10;;;;;;;;;;5035759;28;20029;-60
2022/08/01 02:46:44;;;;;;;39.03;35.80;;;;;;;;;;5035060;28;20049;-61
2022/08/01 02:49:11;;;;;;;39.40;36.20;;;;;;;;;;5033427;28;20136;-61
2022/08/01 02:51:39;;;;;;;37.85;34.65;;;;;;;;;;5033970;28;20026;-59
2022/08/01 02:54:07;;;;;;;40.90;37.20;;;;;;;;;;5035151;28;20108;-61
2022/08/01 02:56:36;;;;;;;41.00;37.47;;;;;;;;;;5033838;28;20043;-62
2022/08/01 02:59:04;;;;;;;39.17;35.88;;;;;;;;;;5034160;28;20025;-60
2022/08/01 03:01:32;;;;;;;38.93;35.63;;;;;;;;;;5035049;28;20041;-58
2022/08/01 03:03:58;;;;;;;40.70;37.10;;;;;;;;;;5033772;28;20355;-57
2022/08/01 03:06:25;;;;;;;38.63;35.40;;;;;;;;;;5035150;28;20025;-61
2022/08/01 03:08:51;;;;;;;36.03;32.92;;;;;;;;;;5033928;28;20247;-58
2022/08/01 03:11:18;;;;;;;36.20;33.10;;;;;;;;;;5033355;28;20026;-60
2022/08/01 03:13:45;;;;;;;34.78;31.77;;;;;;;;;;5034700;28;20488;-59
2022/08/01 03:16:12;;;;;;;34.17;31.07;;;;;;;;;;5033579;28;20037;-61
2022/08/01 03:18:38;;;;;;;34.92;31.92;;;;;;;;;;5032719;28;20432;-60
2022/08/01 03:21:05;;;;;;;35.50;32.50;;;;;;;;;;5034827;28;20083;-58
2022/08/01 03:23:32;;;;;;;34.60;31.60;;;;;;;;;;5034703;28;20031;-60
2022/08/01 03:25:59;;;;;;;34.10;31.10;;;;;;;;;;5034610;28;20490;-60
2022/08/01 03:28:26;;;;;;;35.05;32.05;;;;;;;;;;5033579;28;20112;-56
2022/08/01 03:30:52;;;;;;;34.80;31.80;;;;;;;;;;5034562;28;20021;-62
2022/08/01 03:33:18;;;;;;;34.05;31.05;;;;;;;;;;5034379;28;20109;-61
2022/08/01 03:35:47;;;;;;;33.50;30.50;;;;;;;;;;5034402;28;20481;-57
2022/08/01 03:38:14;;;;;;;32.85;29.95;;;;;;;;;;5032329;28;20116;-55
2022/08/01 03:40:54;;;;;;;32.70;29.80;;;;;;;;;;5034230;28;20037;-61
2022/08/01 03:43:27;;;;;;;32.78;29.80;;;;;;;;;;5032991;28;20025;-58
2022/08/01 03:45:54;;;;;;;33.30;30.30;;;;;;;;;;5034219;28;20026;-58
2022/08/01 03:48:23;;;;;;;32.88;29.85;;;;;;;;;;5033390;28;20084;-57
2022/08/01 03:50:50;;;;;;;32.35;29.45;;;;;;;;;;5032801;28;20030;-57
2022/08/01 03:53:19;;;;;;;31.20;28.40;;;;;;;;;;5033314;28;20056;-59
2022/08/01 03:55:45;;;;;;;31.83;29.02;;;;;;;;;;5034193;28;20080;-56
2022/08/01 03:58:12;;;;;;;31.52;28.73;;;;;;;;;;5031903;28;20060;-57
2022/08/01 04:00:39;;;;;;;31.65;28.75;;;;;;;;;;5033792;28;20029;-60
2022/08/01 04:03:05;;;;;;;31.73;28.80;;;;;;;;;;5033743;28;20359;-61
2022/08/01 04:05:31;;;;;;;30.05;27.35;;;;;;;;;;5033753;28;20026;-59
2022/08/01 04:07:59;;;;;;;29.73;27.02;;;;;;;;;;5032900;28;20029;-59
2022/08/01 04:10:25;;;;;;;29.73;26.83;;;;;;;;;;5033532;28;20033;-61
2022/08/01 04:12:52;;;;;;;29.65;26.90;;;;;;;;;;5033586;28;20029;-56
2022/08/01 04:15:20;;;;;;;29.75;26.95;;;;;;;;;;5033711;28;20085;-58
2022/08/01 04:17:46;;;;;;;29.00;26.30;;;;;;;;;;5032682;28;20024;-59
2022/08/01 04:20:12;;;;;;;28.60;25.90;;;;;;;;;;5033483;28;20025;-59
2022/08/01 04:22:39;;;;;;;29.40;26.60;;;;;;;;;;5033562;28;20040;-58
2022/08/01 04:25:11;;;;;;;29.08;26.38;;;;;;;;;;5033381;28;20104;-61
2022/08/01 04:27:39;;;;;;;28.65;25.95;;;;;;;;;;5033007;28;20382;-63
2022/08/01 04:30:06;;;;;;;28.30;25.60;;;;;;;;;;5033314;28;20029;-60
2022/08/01 04:32:38;;;;;;;29.02;26.33;;;;;;;;;;5033004;28;20025;-60
2022/08/01 04:35:07;;;;;;;27.70;25.10;;;;;;;;;;5032963;28;20429;-60
2022/08/01 04:37:33;;;;;;;27.92;25.33;;;;;;;;;;5031289;28;20103;-61
2022/08/01 04:40:01;;;;;;;27.65;25.05;;;;;;;;;;5033279;28;20052;-58
2022/08/01 04:42:27;;;;;;;28.50;25.80;;;;;;;;;;5033007;28;20375;-59
2022/08/01 04:44:53;;;;;;;27.90;25.25;;;;;;;;;;5031819;28;20378;-59
2022/08/01 04:47:20;;;;;;;27.63;25.00;;;;;;;;;;5025501;28;20498;-59
2022/08/01 04:49:46;;;;;;;27.77;25.17;;;;;;;;;;5027694;28;20454;-56
2022/08/01 04:52:12;;;;;;;28.38;25.75;;;;;;;;;;5014954;28;20121;-60
2022/08/01 04:54:38;;;;;;;28.35;25.67;;;;;;;;;;5013586;28;20067;-61
2022/08/01 04:57:05;;;;;;;28.55;25.85;;;;;;;;;;5032527;28;20413;-61
2022/08/01 04:59:41;;;;;;;28.45;25.75;;;;;;;;;;5031774;28;20025;-53
2022/08/01 05:02:10;;;;;;;29.20;26.45;;;;;;;;;;5032270;28;20448;-59
2022/08/01 05:04:36;;;;;;;;;;;;;;;;;;5018353;28;20386;-59
2022/08/01 05:07:02;;;;;;;28.45;25.75;;;;;;;;;;5012326;28;19905;-60
2022/08/01 05:09:28;;;;;;;28.58;25.88;;;;;;;;;;5010889;28;20112;-60
2022/08/01 05:11:54;;;;;;;29.23;26.52;;;;;;;;;;5012518;28;20033;-57
2022/08/01 05:14:20;;;;;;;29.45;26.75;;;;;;;;;;5012597;28;20013;-59
2022/08/01 05:16:47;;;;;;;28.73;26.02;;;;;;;;;;5012439;28;20026;-61
2022/08/01 05:19:13;;;;;;;28.45;25.75;;;;;;;;;;5010433;28;20026;-61
2022/08/01 05:21:39;;;;;;;28.60;25.90;;;;;;;;;;5025970;28;20022;-61
2022/08/01 05:24:05;;;;;;;28.38;25.77;;;;;;;;;;5032212;28;20096;-61
2022/08/01 05:26:31;;;;;;;28.15;25.55;;;;;;;;;;5031853;28;20025;-61
2022/08/01 05:28:57;;;;;;;27.88;25.27;;;;;;;;;;5030904;28;20056;-62
2022/08/01 05:31:23;;;;;;;28.02;25.42;;;;;;;;;;5031773;28;20072;-59
2022/08/01 05:33:49;;;;;;;27.85;25.25;;;;;;;;;;5031911;28;20543;-54
2022/08/01 05:36:15;;;;;;;28.27;25.67;;;;;;;;;;5031814;28;20048;-56
2022/08/01 05:38:41;;;;;;;28.27;25.67;;;;;;;;;;5031031;28;20413;-59
2022/08/01 05:41:07;;;;;;;28.10;25.50;;;;;;;;;;5030092;28;20033;-61
2022/08/01 05:43:33;;;;;;;27.80;25.20;;;;;;;;;;5031637;28;20394;-57
2022/08/01 05:46:00;;;;;;;28.25;25.65;;;;;;;;;;5031739;28;20096;-61
2022/08/01 05:48:26;;;;;;;27.83;25.23;;;;;;;;;;5030712;28;20109;-59
2022/08/01 05:50:53;;;;;;;27.60;25.00;;;;;;;;;;5031816;28;20113;-59
2022/08/01 05:53:19;;;;;;;27.67;25.13;;;;;;;;;;5031306;28;20030;-60
2022/08/01 05:55:45;;;;;;;27.65;25.13;;;;;;;;;;5031496;28;20018;-59
2022/08/01 05:58:11;;;;;;;27.58;24.98;;;;;;;;;;5030956;28;20482;-58
2022/08/01 06:00:37;;;;;;;27.38;24.88;;;;;;;;;;5031444;28;20064;-57
2022/08/01 06:03:03;;;;;;;27.23;24.73;;;;;;;;;;5031694;28;20025;-58
2022/08/01 06:05:29;;;;;;;27.23;24.73;;;;;;;;;;5031697;28;20026;-59
2022/08/01 06:07:55;;;;;;;26.83;24.40;;;;;;;;;;5030690;28;20025;-60
2022/08/01 06:10:21;;;;;;;28.02;25.20;;;;;;;;;;5031395;28;20486;-59
2022/08/01 06:12:47;;;;;;;27.80;25.30;;;;;;;;;;5031279;28;20029;-59
2022/08/01 06:15:13;;;;;;;28.10;25.60;;;;;;;;;;5030209;28;20082;-60
2022/08/01 06:17:41;;;;;;;28.25;25.70;;;;;;;;;;5033882;28;20435;-60
2022/08/01 06:20:07;;;;;;;30.55;27.75;;;;;;;;;;5035348;28;20025;-60
2022/08/01 06:22:33;;;;;;;32.10;29.30;;;;;;;;;;5035240;28;20025;-59
2022/08/01 06:24:59;;;;;;;31.50;28.70;;;;;;;;;;5035437;28;20078;-58
2022/08/01 06:27:25;;;;;;;32.08;29.25;;;;;;;;;;5033075;28;20099;-61
2022/08/01 06:29:53;;;;;;;31.60;28.80;;;;;;;;;;5035099;28;20035;-61
2022/08/01 06:32:19;;;;;;;31.65;28.85;;;;;;;;;;5035177;28;20030;-58
2022/08/01 06:34:45;;;;;;;32.95;29.95;;;;;;;;;;5034215;28;20363;-62
2022/08/01 06:37:13;;;;;;;31.13;28.33;;;;;;;;;;5034387;28;20079;-58
2022/08/01 06:39:39;;;;;;;31.42;28.63;;;;;;;;;;5035273;28;20104;-66
2022/08/01 06:42:05;;;;;;;32.58;29.58;;;;;;;;;;5033310;28;20060;-65
2022/08/01 06:44:31;;;;;;;31.15;28.35;;;;;;;;;;5033710;28;20033;-65
2022/08/01 06:46:58;;;;;;;31.08;28.27;;;;;;;;;;5031000;28;20042;-64
2022/08/01 06:49:24;;;;;;;31.08;28.27;;;;;;;;;;5014426;28;20037;-64
2022/08/01 06:51:50;;;;;;;30.92;28.17;;;;;;;;;;5015146;28;20026;-65
2022/08/01 06:54:16;;;;;;;30.98;28.17;;;;;;;;;;5015427;28;20022;-65
2022/08/01 06:56:42;;;;;;;31.45;28.65;;;;;;;;;;5015115;28;20029;-63
2022/08/01 06:59:09;;;;;;;31.70;28.90;;;;;;;;;;5012619;28;20025;-63
2022/08/01 07:01:35;;;;;;;32.33;29.52;;;;;;;;;;5014618;28;20075;-64
2022/08/01 07:04:02;;;;;;;33.97;31.08;;;;;;;;;;5014925;28;20022;-64
2022/08/01 07:06:28;;;;;;;34.20;31.30;;;;;;;;;;5013337;28;20024;-63
2022/08/01 07:08:54;;;;;;;33.50;30.60;;;;;;;;;;5013840;28;20022;-64
2022/08/01 07:11:21;;;;;;;33.00;30.10;;;;;;;;;;5012757;28;20026;-63
2022/08/01 07:13:47;;;;;;;33.13;30.23;;;;;;;;;;5013150;28;20118;-62
2022/08/01 07:16:14;;;;;;;32.40;29.50;;;;;;;;;;5014499;28;20033;-63
2022/08/01 07:18:40;;;;;;;31.95;29.15;;;;;;;;;;5013967;28;20096;-63
2022/08/01 07:21:06;;;;;;;32.35;29.55;;;;;;;;;;5011598;28;20064;-63
2022/08/01 07:23:32;;;;;;;32.38;29.48;;;;;;;;;;5014817;28;20065;-64
2022/08/01 07:25:58;;;;;;;32.53;29.63;;;;;;;;;;5014615;28;20100;-64
2022/08/01 07:28:24;;;;;;;32.63;29.73;;;;;;;;;;5012685;28;20367;-64
2022/08/01 07:30:50;;;;;;;33.00;30.10;;;;;;;;;;5014659;28;20034;-64
2022/08/01 07:33:16;;;;;;;32.60;29.70;;;;;;;;;;5014586;28;20084;-65
2022/08/01 07:35:43;;;;;;;32.15;29.35;;;;;;;;;;5014444;28;20033;-64
2022/08/01 07:38:09;;;;;;;33.00;30.10;;;;;;;;;;5013756;28;20033;-64
2022/08/01 07:40:35;;;;;;;33.08;30.17;;;;;;;;;;5013080;28;20079;-64
2022/08/01 07:43:01;;;;;;;32.67;29.85;;;;;;;;;;5013164;28;20443;-64
2022/08/01 07:45:27;;;;;;;33.47;30.40;;;;;;;;;;5014182;28;20022;-65
2022/08/01 07:47:53;;;;;;;31.92;29.13;;;;;;;;;;5013520;28;20032;-63
2022/08/01 07:50:19;;;;;;;31.70;28.90;;;;;;;;;;5012607;28;20509;-63
2022/08/01 07:52:45;;;;;;;31.38;28.58;;;;;;;;;;5013846;28;20394;-64
2022/08/01 07:55:11;;;;;;;31.58;28.77;;;;;;;;;;5013868;28;20029;-64
2022/08/01 07:57:38;;;;;;;31.67;28.88;;;;;;;;;;5013004;28;20093;-64
2022/08/01 08:00:06;;;;;;;31.35;28.55;;;;;;;;;;5013503;28;20021;-64
2022/08/01 08:02:32;;;;;;;31.20;28.40;;;;;;;;;;5013546;28;20482;-64
2022/08/01 08:04:58;;;;;;;31.27;28.48;;;;;;;;;;5013842;28;20034;-64
2022/08/01 08:07:24;;;;;;;31.50;28.70;;;;;;;;;;5012979;28;20053;-63
2022/08/01 08:09:50;;;;;;;31.95;29.05;;;;;;;;;;5012256;28;20080;-64
2022/08/01 08:12:16;;;;;;;32.83;30.02;;;;;;;;;;5013408;28;20505;-64
2022/08/01 08:14:42;;;;;;;33.58;30.58;;;;;;;;;;5012340;28;20057;-64
2022/08/01 08:17:08;;;;;;;32.45;29.65;;;;;;;;;;5011774;28;20504;-62
2022/08/01 08:19:36;;;;;;;32.58;29.80;;;;;;;;;;5013394;28;20415;-64
2022/08/01 08:22:03;;;;;;;;;;;;;;;;;;5012329;28;20639;-64
2022/08/01 08:24:29;;;;;;;32.00;29.30;;;;;;;;;;5013260;28;19996;-64
2022/08/01 08:26:57;;;;;;;32.13;29.42;;;;;;;;;;5013279;28;20022;-64
2022/08/01 08:29:23;;;;;;;31.52;28.83;;;;;;;;;;5012921;28;20026;-64
2022/08/01 08:31:50;;;;;;;33.75;30.95;;;;;;;;;;5013212;28;20022;-64
2022/08/01 08:34:16;;;;;;;33.75;30.88;;;;;;;;;;5012286;28;20501;-64
2022/08/01 08:36:42;;;;;;;33.63;30.83;;;;;;;;;;5014689;28;20188;-63
2022/08/01 08:39:09;;;;;;;32.58;29.60;;;;;;;;;;5012129;28;20029;-66
2022/08/01 08:41:35;;;;;;;31.77;29.05;;;;;;;;;;5013068;28;20482;-62
2022/08/01 08:44:02;;;;;;;31.85;29.15;;;;;;;;;;5012971;28;20030;-64
2022/08/01 08:46:29;;;;;;;32.45;29.65;;;;;;;;;;5013088;28;20052;-64
2022/08/01 08:48:56;;;;;;;32.55;29.75;;;;;;;;;;5009340;28;20022;-64
2022/08/01 08:51:24;;;;;;;33.70;30.80;;;;;;;;;;5012584;28;20049;-64
2022/08/01 08:53:54;;;;;;;32.88;30.08;;;;;;;;;;5013035;28;20030;-65
2022/08/01 08:56:20;;;;;;;32.80;30.00;;;;;;;;;;5013153;28;20441;-66
2022/08/01 08:58:46;;;;;;;33.80;30.70;;;;;;;;;;5011002;28;20113;-66
2022/08/01 09:01:13;;;;;;;32.83;30.02;;;;;;;;;;5012710;28;20482;-66
2022/08/01 09:03:40;;;;;;;32.83;30.02;;;;;;;;;;5012995;28;20026;-66
2022/08/01 09:06:06;;;;;;;31.75;29.05;;;;;;;;;;5011580;28;20121;-66
2022/08/01 09:08:33;;;;;;;31.95;29.25;;;;;;;;;;5011845;28;20029;-66
2022/08/01 09:11:00;;;;;;;31.47;28.77;;;;;;;;;;5012727;28;20022;-63
2022/08/01 09:13:26;;;;;;;32.20;29.40;;;;;;;;;;5012475;28;20030;-66
2022/08/01 09:15:53;;;;;;;32.83;30.02;;;;;;;;;;5012527;28;20022;-65
2022/08/01 09:18:27;;;;;;;33.10;30.30;;;;;;;;;;5011662;28;20014;-65
2022/08/01 09:21:07;;;;;;;33.13;30.33;;;;;;;;;;5012549;28;20022;-67
2022/08/01 09:23:39;;;;;;;41.58;37.90;;;;;;;;;;5011751;28;20144;-65
2022/08/01 09:26:05;;;;;;;41.72;38.05;;;;;;;;;;5012272;28;20128;-65
2022/08/01 09:28:31;;;;;;;42.10;38.40;;;;;;;;;;5011543;28;20022;-64
2022/08/01 09:30:58;;;;;;;42.30;38.50;;;;;;;;;;5028344;28;20033;-63
2022/08/01 09:33:24;;;;;;;40.03;36.63;;;;;;;;;;5030397;28;20025;-60
2022/08/01 09:35:57;;;;;;;43.60;40.00;;;;;;;;;;5031954;28;20081;-60
2022/08/01 09:38:26;;;;;;;42.92;39.13;;;;;;;;;;5029605;28;20022;-61
2022/08/01 09:40:54;;;;;;;41.92;38.53;;;;;;;;;;5031628;28;20488;-61
2022/08/01 09:43:21;;;;;;;41.58;38.00;;;;;;;;;;5031672;28;20045;-62
2022/08/01 09:45:47;;;;;;;41.47;37.78;;;;;;;;;;5030679;28;20030;-62
2022/08/01 09:48:15;;;;;;;40.25;36.80;;;;;;;;;;5030770;28;20397;-60
2022/08/01 09:50:46;;;;;;;41.65;37.85;;;;;;;;;;5031194;28;20456;-60
2022/08/01 09:53:12;;;;;;;41.00;37.55;;;;;;;;;;5031163;28;20163;-61
2022/08/01 09:55:39;;;;;;;42.13;38.45;;;;;;;;;;5031493;28;20025;-62
2022/08/01 09:58:06;;;;;;;41.45;37.65;;;;;;;;;;5030588;28;20064;-59
2022/08/01 10:00:32;;;;;;;40.28;36.70;;;;;;;;;;5031512;28;20022;-60
2022/08/01 10:02:59;;;;;;;40.20;36.78;;;;;;;;;;5031559;28;20120;-62
2022/08/01 10:05:31;;;;;;;40.75;37.35;;;;;;;;;;5031101;28;20025;-57
2022/08/01 10:07:59;;;;;;;38.90;35.53;;;;;;;;;;5030501;28;20022;-60
2022/08/01 10:10:25;;;;;;;38.43;34.93;;;;;;;;;;5031334;28;20029;-60
2022/08/01 10:12:52;;;;;;;38.13;34.83;;;;;;;;;;5030952;28;20071;-60
2022/08/01 10:15:20;;;;;;;37.85;34.65;;;;;;;;;;5031361;28;20153;-61
2022/08/01 10:17:56;;;;;;;38.55;35.05;;;;;;;;;;5030471;28;20025;-59
2022/08/01 10:20:24;;;;;;;37.42;34.33;;;;;;;;;;5030713;28;20022;-54
2022/08/01 10:22:52;;;;;;;39.72;36.03;;;;;;;;;;5031366;28;20489;-58
2022/08/01 10:25:18;;;;;;;37.97;34.73;;;;;;;;;;5030904;28;20059;-59
2022/08/01 10:27:45;;;;;;;37.67;34.38;;;;;;;;;;5030329;28;20553;-59
2022/08/01 10:30:12;;;;;;;39.47;35.97;;;;;;;;;;5031054;28;20028;-60
2022/08/01 10:32:39;;;;;;;41.15;37.65;;;;;;;;;;5031014;28;20080;-59
2022/08/01 10:35:05;;;;;;;40.72;37.28;;;;;;;;;;5031506;28;20436;-61
2022/08/01 10:37:33;;;;;;;39.58;36.13;;;;;;;;;;5031078;28;20101;-59
2022/08/01 10:39:59;;;;;;;40.37;36.77;;;;;;;;;;4679131;28;10000481;-60
2022/08/01 10:42:27;;;;;;;40.08;36.47;;;;;;;;;;5017255;28;20026;-61
2022/08/01 10:44:53;;;;;;;39.88;36.38;;;;;;;;;;5017439;28;20128;-59
2022/08/01 10:47:21;;;;;;;39.55;35.92;;;;;;;;;;5014394;28;20025;-61
2022/08/01 10:49:47;;;;;;;;;;;;;;;;;;5011208;28;20121;-62
2022/08/01 10:52:20;;;;;;;38.70;35.22;;;;;;;;;;5007863;28;19997;-60
2022/08/01 10:54:46;;;;;;;40.60;37.00;;;;;;;;;;5008291;28;20110;-63
2022/08/01 10:57:13;;;;;;;39.47;35.92;;;;;;;;;;5012664;28;20014;-64
2022/08/01 10:59:49;;;;;;;38.83;35.30;;;;;;;;;;5027862;28;20430;-65
2022/08/01 11:02:29;;;;;;;38.30;34.90;;;;;;;;;;5028173;28;20383;-65
2022/08/01 11:04:58;;;;;;;38.47;34.88;;;;;;;;;;5026767;28;20571;-66
2022/08/01 11:07:34;;;;;;;37.03;33.72;;;;;;;;;;5011198;28;20033;-65
2022/08/01 11:10:05;;;;;;;37.33;34.00;;;;;;;;;;5011420;28;20504;-64
2022/08/01 11:12:39;;;;;;;37.38;33.97;;;;;;;;;;5010227;28;20048;-65
2022/08/01 11:15:24;;;;;;;38.75;35.05;;;;;;;;;;5024245;28;20021;-65
2022/08/01 11:17:51;;;;;;;37.60;34.20;;;;;;;;;;5031008;28;20033;-66
2022/08/01 11:20:33;;;;;;;38.38;34.97;;;;;;;;;;5031134;28;20025;-63
2022/08/01 11:22:59;;;;;;;36.90;33.60;;;;;;;;;;5030988;28;20040;-66
2022/08/01 11:25:26;;;;;;;38.25;34.95;;;;;;;;;;5030959;28;20497;-63
2022/08/01 11:28:11;;;;;;;37.85;34.47;;;;;;;;;;5030802;28;20030;-64
2022/08/01 11:30:37;;;;;;;37.28;33.97;;;;;;;;;;5033101;28;20389;-67
2022/08/01 11:33:03;;;;;;;36.80;33.38;;;;;;;;;;5034174;28;20033;-67
2022/08/01 11:35:29;;;;;;;37.95;34.55;;;;;;;;;;5034353;28;20028;-66
2022/08/01 11:37:56;;;;;;;38.13;34.72;;;;;;;;;;5033823;28;20022;-62
2022/08/01 11:40:22;;;;;;;38.42;34.92;;;;;;;;;;5033918;28;20076;-61
2022/08/01 11:42:49;;;;;;;38.55;35.15;;;;;;;;;;5032688;28;20029;-61
2022/08/01 11:45:15;;;;;;;36.03;32.90;;;;;;;;;;5033979;28;20382;-54
2022/08/01 11:47:45;;;;;;;37.13;33.72;;;;;;;;;;5032516;28;20017;-62
2022/08/01 11:50:29;;;;;;;40.03;36.17;;;;;;;;;;5033510;28;20034;-61
2022/08/01 11:53:02;;;;;;;38.58;35.05;;;;;;;;;;5033662;28;20029;-55
2022/08/01 11:55:29;;;;;;;40.20;36.47;;;;;;;;;;4682963;28;10000481;-60
2022/08/01 11:58:04;;;;;;;39.10;35.67;;;;;;;;;;5029650;28;20113;-63
2022/08/01 12:00:33;;;;;;;39.30;35.90;;;;;;;;;;5025032;28;20482;-59
2022/08/01 12:03:03;;;;;;;42.08;38.13;;;;;;;;;;5032346;28;20080;-59
2022/08/01 12:05:30;;;;;;;46.20;41.88;;;;;;;;;;5033283;28;20090;-59
2022/08/01 12:07:57;;;;;;;44.05;40.25;;;;;;;;;;5032776;28;20444;-60
2022/08/01 12:10:25;;;;;;;45.47;41.47;;;;;;;;;;5033355;28;20026;-61
2022/08/01 12:12:51;;;;;;;48.28;43.67;;;;;;;;;;5032800;28;20029;-61
2022/08/01 12:15:18;;;;;;;47.45;42.95;;;;;;;;;;5020957;28;20026;-61
2022/08/01 12:17:44;;;;;;;44.80;40.63;;;;;;;;;;5012782;28;20113;-61
2022/08/01 12:20:11;;;;;;;45.08;40.90;;;;;;;;;;5013415;28;20049;-61
2022/08/01 12:22:37;;;;;;;42.15;38.28;;;;;;;;;;5012926;28;20029;-59
2022/08/01 12:25:11;;;;;;;41.78;37.78;;;;;;;;;;5013608;28;20029;-62
2022/08/01 12:27:38;;;;;;;39.85;36.20;;;;;;;;;;5011321;28;20121;-60
2022/08/01 12:30:08;;;;;;;40.63;36.95;;;;;;;;;;5021779;28;20025;-63
2022/08/01 12:32:36;;;;;;;41.30;37.58;;;;;;;;;;5031293;28;20083;-61
2022/08/01 12:35:05;;;;;;;42.90;39.20;;;;;;;;;;5033210;28;20095;-63
2022/08/01 12:37:31;;;;;;;41.45;38.00;;;;;;;;;;5032176;28;20068;-58
2022/08/01 12:39:57;;;;;;;34.10;31.00;;;;;;;;;;5032705;28;20025;-61
2022/08/01 12:42:24;;;;;;;32.78;29.77;;;;;;;;;;5032477;28;20045;-61
2022/08/01 12:44:51;;;;;;;35.10;32.00;;;;;;;;;;5032764;28;20495;-61
2022/08/01 12:47:18;;;;;;;34.90;31.80;;;;;;;;;;5032280;28;20056;-60
2022/08/01 12:49:45;;;;;;;36.45;33.25;;;;;;;;;;5032467;28;20035;-62
2022/08/01 12:52:11;;;;;;;38.08;34.70;;;;;;;;;;5032169;28;20033;-64
2022/08/01 12:54:56;;;;;;;33.67;30.80;;;;;;;;;;5032289;28;20493;-64
2022/08/01 12:57:23;;;;;;;34.22;31.23;;;;;;;;;;4668067;28;10000273;-62
2022/08/01 12:59:53;;;;;;;34.40;31.33;;;;;;;;;;5009626;28;20026;-65
2022/08/01 13:02:19;;;;;;;34.38;31.38;;;;;;;;;;5021443;28;20029;-66
2022/08/01 13:04:51;;;;;;;32.53;29.57;;;;;;;;;;4670351;28;10000411;-65
2022/08/01 13:07:18;;;;;;;32.58;29.77;;;;;;;;;;5018164;28;20310;-63
2022/08/01 13:09:50;;;;;;;31.50;28.58;;;;;;;;;;5025854;28;20057;-64
2022/08/01 13:12:16;;;;;;;32.08;29.27;;;;;;;;;;5009060;28;20060;-64
2022/08/01 13:14:43;;;;;;;30.08;27.40;;;;;;;;;;5018086;28;20036;-64
2022/08/01 13:17:09;;;;;;;31.58;28.60;;;;;;;;;;5026383;28;20036;-62
2022/08/01 13:19:45;;;;;;;30.35;27.33;;;;;;;;;;5027066;28;20021;-64
2022/08/01 13:22:11;;;;;;;29.85;27.20;;;;;;;;;;5028721;28;20029;-63
2022/08/01 13:24:37;;;;;;;28.05;25.55;;;;;;;;;;5026358;28;20029;-65
2022/08/01 13:27:04;;;;;;;24.40;22.20;;;;;;;;;;5011067;28;20084;-64
2022/08/01 13:29:30;;;;;;;23.20;20.90;;;;;;;;;;5028137;28;20029;-65
2022/08/01 13:31:56;;;;;;;23.15;20.77;;;;;;;;;;5021782;28;20494;-64
2022/08/01 13:34:35;;;;;;;22.33;20.13;;;;;;;;;;4783834;28;10001313;-64
2022/08/01 13:37:01;;;;;;;20.35;18.23;;;;;;;;;;5028167;28;20231;-63
2022/08/01 13:39:47;;;;;;;19.45;17.40;;;;;;;;;;5027328;28;20033;-61
2022/08/01 13:42:14;;;;;;;19.17;16.35;;;;;;;;;;5028098;28;20060;-62
2022/08/01 13:44:40;;;;;;;17.92;16.00;;;;;;;;;;5027700;28;20438;-61
2022/08/01 13:47:06;;;;;;;19.30;15.38;;;;;;;;;;5027885;28;20095;-62
2022/08/01 13:49:33;;;;;;;19.10;15.50;;;;;;;;;;5027408;28;20029;-62
2022/08/01 13:51:59;;;;;;;18.23;15.52;;;;;;;;;;5028724;28;20171;-59
2022/08/01 13:54:25;;;;;;;18.90;15.25;;;;;;;;;;5031565;28;20026;-62
2022/08/01 13:56:52;;;;;;;18.63;15.45;;;;;;;;;;5032262;28;20040;-61
2022/08/01 13:59:18;;;;;;;17.88;15.30;;;;;;;;;;5012772;28;20028;-62
2022/08/01 14:01:44;;;;;;;19.52;15.60;;;;;;;;;;5014263;28;20093;-62
2022/08/01 14:04:10;;;;;;;19.27;15.18;;;;;;;;;;5011530;28;20030;-62
2022/08/01 14:06:36;;;;;;;19.05;15.50;;;;;;;;;;5012372;28;20045;-56
2022/08/01 14:09:03;;;;;;;19.48;15.57;;;;;;;;;;5011644;28;20026;-61
2022/08/01 14:11:30;;;;;;;20.35;15.30;;;;;;;;;;5012224;28;20026;-60
2022/08/01 14:13:56;;;;;;;19.35;15.90;;;;;;;;;;5031363;28;20032;-61
2022/08/01 14:16:22;;;;;;;20.15;15.98;;;;;;;;;;5030425;28;20022;-61
2022/08/01 14:18:48;;;;;;;20.48;15.70;;;;;;;;;;5029017;28;20030;-55
2022/08/01 14:21:14;;;;;;;18.50;15.90;;;;;;;;;;5030321;28;20592;-63